sensor_id;sensor_type;location;lat;lon;timestamp;P1;durP1;ratioP1;P2;durP2;ratioP2
76236;SDS011;65038;53.200;6.530;2023-11-21T00:02:04;28.73;;;5.68;;
76236;SDS011;65038;53.200;6.530;2023-11-21T00:04:30;24.00;;;5.53;;
76236;SDS011;65038;53.200;6.530;2023-11-21T00:06:56;18.52;;;4.80;;
76236;SDS011;65038;53.200;6.530;2023-11-21T00:09:22;24.42;;;5.68;;
76236;SDS011;65038;53.200;6.530;2023-11-21T00:11:48;23.25;;;5.65;;
76236;SDS011;65038;53.200;6.530;2023-11-21T00:14:14;16.98;;;5.35;;
76236;SDS011;65038;53.200;6.530;2023-11-21T00:16:41;20.23;;;5.35;;
76236;SDS011;65038;53.200;6.530;2023-11-21T00:19:07;23.00;;;5.32;;
76236;SDS011;65038;53.200;6.530;2023-11-21T00:21:33;19.25;;;5.47;;
76236;SDS011;65038;53.200;6.530;2023-11-21T00:23:59;21.17;;;5.72;;
76236;SDS011;65038;53.200;6.530;2023-11-21T00:26:25;19.52;;;5.43;;
76236;SDS011;65038;53.200;6.530;2023-11-21T00:28:51;22.67;;;5.97;;
76236;SDS011;65038;53.200;6.530;2023-11-21T00:31:17;19.40;;;5.57;;
76236;SDS011;65038;53.200;6.530;2023-11-21T00:33:43;24.42;;;5.78;;
76236;SDS011;65038;53.200;6.530;2023-11-21T00:36:09;24.77;;;5.80;;
76236;SDS011;65038;53.200;6.530;2023-11-21T00:38:36;23.48;;;6.28;;
76236;SDS011;65038;53.200;6.530;2023-11-21T00:41:04;23.95;;;6.43;;
76236;SDS011;65038;53.200;6.530;2023-11-21T00:43:31;22.85;;;6.13;;
76236;SDS011;65038;53.200;6.530;2023-11-21T00:45:58;21.30;;;5.95;;
76236;SDS011;65038;53.200;6.530;2023-11-21T00:48:24;23.73;;;6.63;;
76236;SDS011;65038;53.200;6.530;2023-11-21T00:50:50;24.17;;;6.97;;
76236;SDS011;65038;53.200;6.530;2023-11-21T00:53:16;20.17;;;6.78;;
76236;SDS011;65038;53.200;6.530;2023-11-21T00:55:42;21.10;;;7.20;;
76236;SDS011;65038;53.200;6.530;2023-11-21T00:58:08;26.35;;;7.72;;
76236;SDS011;65038;53.200;6.530;2023-11-21T01:00:35;26.45;;;7.30;;
76236;SDS011;65038;53.200;6.530;2023-11-21T01:03:04;27.38;;;7.95;;
76236;SDS011;65038;53.200;6.530;2023-11-21T01:05:30;30.67;;;7.90;;
76236;SDS011;65038;53.200;6.530;2023-11-21T01:07:56;24.48;;;7.65;;
76236;SDS011;65038;53.200;6.530;2023-11-21T01:10:22;28.10;;;7.40;;
76236;SDS011;65038;53.200;6.530;2023-11-21T01:12:49;28.58;;;8.27;;
76236;SDS011;65038;53.200;6.530;2023-11-21T01:15:16;28.88;;;7.80;;
76236;SDS011;65038;53.200;6.530;2023-11-21T01:17:42;28.67;;;8.00;;
76236;SDS011;65038;53.200;6.530;2023-11-21T01:20:08;26.80;;;8.02;;
76236;SDS011;65038;53.200;6.530;2023-11-21T01:22:37;31.38;;;8.73;;
76236;SDS011;65038;53.200;6.530;2023-11-21T01:25:03;32.20;;;8.95;;
76236;SDS011;65038;53.200;6.530;2023-11-21T01:27:33;37.33;;;8.77;;
76236;SDS011;65038;53.200;6.530;2023-11-21T01:29:59;29.15;;;8.40;;
76236;SDS011;65038;53.200;6.530;2023-11-21T01:32:25;29.92;;;8.13;;
76236;SDS011;65038;53.200;6.530;2023-11-21T01:34:51;28.98;;;8.25;;
76236;SDS011;65038;53.200;6.530;2023-11-21T01:37:17;28.10;;;8.50;;
76236;SDS011;65038;53.200;6.530;2023-11-21T01:39:43;26.08;;;8.50;;
76236;SDS011;65038;53.200;6.530;2023-11-21T01:42:09;30.45;;;9.23;;
76236;SDS011;65038;53.200;6.530;2023-11-21T01:44:37;33.97;;;9.30;;
76236;SDS011;65038;53.200;6.530;2023-11-21T01:47:04;37.50;;;9.52;;
76236;SDS011;65038;53.200;6.530;2023-11-21T01:49:34;30.50;;;9.20;;
76236;SDS011;65038;53.200;6.530;2023-11-21T01:52:00;28.40;;;9.25;;
76236;SDS011;65038;53.200;6.530;2023-11-21T01:54:27;35.53;;;9.32;;
76236;SDS011;65038;53.200;6.530;2023-11-21T01:56:56;31.17;;;9.43;;
76236;SDS011;65038;53.200;6.530;2023-11-21T01:59:27;34.55;;;9.60;;
76236;SDS011;65038;53.200;6.530;2023-11-21T02:01:56;31.05;;;8.90;;
76236;SDS011;65038;53.200;6.530;2023-11-21T02:04:22;29.17;;;8.90;;
76236;SDS011;65038;53.200;6.530;2023-11-21T02:06:48;28.08;;;9.23;;
76236;SDS011;65038;53.200;6.530;2023-11-21T02:09:15;35.25;;;9.23;;
76236;SDS011;65038;53.200;6.530;2023-11-21T02:11:42;27.90;;;9.20;;
76236;SDS011;65038;53.200;6.530;2023-11-21T02:14:09;30.92;;;9.10;;
76236;SDS011;65038;53.200;6.530;2023-11-21T02:16:35;25.85;;;8.82;;
76236;SDS011;65038;53.200;6.530;2023-11-21T02:19:03;30.52;;;8.82;;
76236;SDS011;65038;53.200;6.530;2023-11-21T02:21:34;32.65;;;9.50;;
76236;SDS011;65038;53.200;6.530;2023-11-21T02:24:01;32.88;;;9.82;;
76236;SDS011;65038;53.200;6.530;2023-11-21T02:26:27;32.05;;;9.50;;
76236;SDS011;65038;53.200;6.530;2023-11-21T02:28:53;32.30;;;9.38;;
76236;SDS011;65038;53.200;6.530;2023-11-21T02:31:19;33.35;;;9.73;;
76236;SDS011;65038;53.200;6.530;2023-11-21T02:33:45;37.42;;;11.77;;
76236;SDS011;65038;53.200;6.530;2023-11-21T02:36:12;39.72;;;11.25;;
76236;SDS011;65038;53.200;6.530;2023-11-21T02:38:38;37.58;;;11.45;;
76236;SDS011;65038;53.200;6.530;2023-11-21T02:41:04;43.90;;;11.00;;
76236;SDS011;65038;53.200;6.530;2023-11-21T02:43:30;35.67;;;10.88;;
76236;SDS011;65038;53.200;6.530;2023-11-21T02:45:56;34.67;;;10.73;;
76236;SDS011;65038;53.200;6.530;2023-11-21T02:48:22;34.90;;;10.38;;
76236;SDS011;65038;53.200;6.530;2023-11-21T02:50:50;46.40;;;12.23;;
76236;SDS011;65038;53.200;6.530;2023-11-21T02:53:18;40.97;;;11.98;;
76236;SDS011;65038;53.200;6.530;2023-11-21T02:55:44;49.20;;;12.80;;
76236;SDS011;65038;53.200;6.530;2023-11-21T02:58:10;42.30;;;11.43;;
76236;SDS011;65038;53.200;6.530;2023-11-21T03:00:36;34.10;;;10.45;;
76236;SDS011;65038;53.200;6.530;2023-11-21T03:03:02;44.28;;;11.95;;
76236;SDS011;65038;53.200;6.530;2023-11-21T03:05:29;33.35;;;11.15;;
76236;SDS011;65038;53.200;6.530;2023-11-21T03:07:55;37.47;;;11.93;;
76236;SDS011;65038;53.200;6.530;2023-11-21T03:10:21;37.70;;;11.07;;
76236;SDS011;65038;53.200;6.530;2023-11-21T03:12:47;34.78;;;10.32;;
76236;SDS011;65038;53.200;6.530;2023-11-21T03:15:13;29.02;;;10.82;;
76236;SDS011;65038;53.200;6.530;2023-11-21T03:17:39;38.42;;;11.25;;
76236;SDS011;65038;53.200;6.530;2023-11-21T03:20:05;33.97;;;11.77;;
76236;SDS011;65038;53.200;6.530;2023-11-21T03:22:35;30.83;;;10.90;;
76236;SDS011;65038;53.200;6.530;2023-11-21T03:25:02;37.10;;;12.30;;
76236;SDS011;65038;53.200;6.530;2023-11-21T03:27:29;43.85;;;12.55;;
76236;SDS011;65038;53.200;6.530;2023-11-21T03:29:55;43.30;;;11.45;;
76236;SDS011;65038;53.200;6.530;2023-11-21T03:32:21;36.58;;;10.98;;
76236;SDS011;65038;53.200;6.530;2023-11-21T03:34:55;46.22;;;12.70;;
76236;SDS011;65038;53.200;6.530;2023-11-21T03:37:21;38.58;;;12.07;;
76236;SDS011;65038;53.200;6.530;2023-11-21T03:39:47;35.42;;;11.32;;
76236;SDS011;65038;53.200;6.530;2023-11-21T03:42:13;46.03;;;12.90;;
76236;SDS011;65038;53.200;6.530;2023-11-21T03:44:39;42.33;;;12.23;;
76236;SDS011;65038;53.200;6.530;2023-11-21T03:47:05;49.40;;;13.68;;
76236;SDS011;65038;53.200;6.530;2023-11-21T03:49:31;48.60;;;13.27;;
76236;SDS011;65038;53.200;6.530;2023-11-21T03:51:57;39.33;;;11.93;;
76236;SDS011;65038;53.200;6.530;2023-11-21T03:54:23;38.92;;;12.55;;
76236;SDS011;65038;53.200;6.530;2023-11-21T03:56:49;36.08;;;11.45;;
76236;SDS011;65038;53.200;6.530;2023-11-21T03:59:15;44.17;;;12.55;;
76236;SDS011;65038;53.200;6.530;2023-11-21T04:01:41;37.15;;;11.52;;
76236;SDS011;65038;53.200;6.530;2023-11-21T04:04:07;42.55;;;12.40;;
76236;SDS011;65038;53.200;6.530;2023-11-21T04:06:33;37.60;;;11.40;;
76236;SDS011;65038;53.200;6.530;2023-11-21T04:09:00;52.97;;;12.65;;
76236;SDS011;65038;53.200;6.530;2023-11-21T04:11:29;47.45;;;13.20;;
76236;SDS011;65038;53.200;6.530;2023-11-21T04:13:55;48.80;;;12.68;;
76236;SDS011;65038;53.200;6.530;2023-11-21T04:16:21;40.05;;;11.98;;
76236;SDS011;65038;53.200;6.530;2023-11-21T04:18:47;46.13;;;12.40;;
76236;SDS011;65038;53.200;6.530;2023-11-21T04:21:13;43.70;;;12.02;;
76236;SDS011;65038;53.200;6.530;2023-11-21T04:23:39;42.78;;;12.63;;
76236;SDS011;65038;53.200;6.530;2023-11-21T04:26:05;47.83;;;13.05;;
76236;SDS011;65038;53.200;6.530;2023-11-21T04:28:31;47.75;;;13.20;;
76236;SDS011;65038;53.200;6.530;2023-11-21T04:30:57;56.50;;;13.00;;
76236;SDS011;65038;53.200;6.530;2023-11-21T04:33:23;44.25;;;12.88;;
76236;SDS011;65038;53.200;6.530;2023-11-21T04:35:50;56.72;;;13.48;;
76236;SDS011;65038;53.200;6.530;2023-11-21T04:38:16;51.25;;;12.95;;
76236;SDS011;65038;53.200;6.530;2023-11-21T04:40:44;52.83;;;12.77;;
76236;SDS011;65038;53.200;6.530;2023-11-21T04:43:10;53.67;;;13.35;;
76236;SDS011;65038;53.200;6.530;2023-11-21T04:45:36;45.25;;;12.57;;
76236;SDS011;65038;53.200;6.530;2023-11-21T04:48:02;53.20;;;13.68;;
76236;SDS011;65038;53.200;6.530;2023-11-21T04:50:28;45.10;;;12.52;;
76236;SDS011;65038;53.200;6.530;2023-11-21T04:52:54;46.78;;;12.82;;
76236;SDS011;65038;53.200;6.530;2023-11-21T04:55:20;43.67;;;12.35;;
76236;SDS011;65038;53.200;6.530;2023-11-21T04:57:46;41.38;;;12.07;;
76236;SDS011;65038;53.200;6.530;2023-11-21T05:00:12;49.75;;;12.98;;
76236;SDS011;65038;53.200;6.530;2023-11-21T05:02:40;48.92;;;12.82;;
76236;SDS011;65038;53.200;6.530;2023-11-21T05:05:06;41.60;;;12.40;;
76236;SDS011;65038;53.200;6.530;2023-11-21T05:07:35;36.88;;;11.02;;
76236;SDS011;65038;53.200;6.530;2023-11-21T05:10:01;33.05;;;10.65;;
76236;SDS011;65038;53.200;6.530;2023-11-21T05:12:33;41.88;;;12.05;;
76236;SDS011;65038;53.200;6.530;2023-11-21T05:15:02;37.97;;;11.35;;
76236;SDS011;65038;53.200;6.530;2023-11-21T05:17:32;37.38;;;11.95;;
76236;SDS011;65038;53.200;6.530;2023-11-21T05:19:59;39.78;;;11.50;;
76236;SDS011;65038;53.200;6.530;2023-11-21T05:22:28;46.03;;;12.95;;
76236;SDS011;65038;53.200;6.530;2023-11-21T05:24:54;42.80;;;12.98;;
76236;SDS011;65038;53.200;6.530;2023-11-21T05:27:20;35.00;;;11.55;;
76236;SDS011;65038;53.200;6.530;2023-11-21T05:29:46;45.20;;;12.75;;
76236;SDS011;65038;53.200;6.530;2023-11-21T05:32:12;44.95;;;12.35;;
76236;SDS011;65038;53.200;6.530;2023-11-21T05:34:38;38.38;;;11.73;;
76236;SDS011;65038;53.200;6.530;2023-11-21T05:37:04;38.28;;;12.23;;
76236;SDS011;65038;53.200;6.530;2023-11-21T05:39:30;34.30;;;12.05;;
76236;SDS011;65038;53.200;6.530;2023-11-21T05:41:57;32.55;;;11.55;;
76236;SDS011;65038;53.200;6.530;2023-11-21T05:44:25;34.85;;;11.95;;
76236;SDS011;65038;53.200;6.530;2023-11-21T05:46:51;33.30;;;11.40;;
76236;SDS011;65038;53.200;6.530;2023-11-21T05:49:17;32.65;;;11.43;;
76236;SDS011;65038;53.200;6.530;2023-11-21T05:51:46;27.75;;;10.20;;
76236;SDS011;65038;53.200;6.530;2023-11-21T05:54:12;31.38;;;10.77;;
76236;SDS011;65038;53.200;6.530;2023-11-21T05:56:38;34.75;;;11.55;;
76236;SDS011;65038;53.200;6.530;2023-11-21T05:59:04;31.33;;;11.00;;
76236;SDS011;65038;53.200;6.530;2023-11-21T06:01:31;33.88;;;11.93;;
76236;SDS011;65038;53.200;6.530;2023-11-21T06:03:57;35.85;;;12.25;;
76236;SDS011;65038;53.200;6.530;2023-11-21T06:06:24;30.70;;;11.30;;
76236;SDS011;65038;53.200;6.530;2023-11-21T06:08:50;35.05;;;12.13;;
76236;SDS011;65038;53.200;6.530;2023-11-21T06:11:16;33.58;;;11.82;;
76236;SDS011;65038;53.200;6.530;2023-11-21T06:13:43;36.47;;;11.60;;
76236;SDS011;65038;53.200;6.530;2023-11-21T06:16:09;34.33;;;12.43;;
76236;SDS011;65038;53.200;6.530;2023-11-21T06:18:35;34.75;;;12.38;;
76236;SDS011;65038;53.200;6.530;2023-11-21T06:21:01;38.53;;;13.27;;
76236;SDS011;65038;53.200;6.530;2023-11-21T06:23:27;37.10;;;12.88;;
76236;SDS011;65038;53.200;6.530;2023-11-21T06:25:53;39.95;;;13.10;;
76236;SDS011;65038;53.200;6.530;2023-11-21T06:28:19;38.85;;;13.20;;
76236;SDS011;65038;53.200;6.530;2023-11-21T06:30:45;38.22;;;13.20;;
76236;SDS011;65038;53.200;6.530;2023-11-21T06:33:11;39.67;;;12.73;;
76236;SDS011;65038;53.200;6.530;2023-11-21T06:35:38;42.88;;;13.80;;
76236;SDS011;65038;53.200;6.530;2023-11-21T06:38:04;46.60;;;14.68;;
76236;SDS011;65038;53.200;6.530;2023-11-21T06:40:30;50.67;;;15.55;;
76236;SDS011;65038;53.200;6.530;2023-11-21T06:42:58;48.75;;;15.10;;
76236;SDS011;65038;53.200;6.530;2023-11-21T06:45:25;45.50;;;14.10;;
76236;SDS011;65038;53.200;6.530;2023-11-21T06:47:51;43.00;;;13.50;;
76236;SDS011;65038;53.200;6.530;2023-11-21T06:50:18;44.55;;;14.05;;
76236;SDS011;65038;53.200;6.530;2023-11-21T06:52:44;32.10;;;12.20;;
76236;SDS011;65038;53.200;6.530;2023-11-21T06:55:10;29.85;;;10.32;;
76236;SDS011;65038;53.200;6.530;2023-11-21T06:57:36;28.48;;;10.73;;
76236;SDS011;65038;53.200;6.530;2023-11-21T07:00:03;27.48;;;10.05;;
76236;SDS011;65038;53.200;6.530;2023-11-21T07:02:30;29.88;;;11.23;;
76236;SDS011;65038;53.200;6.530;2023-11-21T07:04:55;27.80;;;10.65;;
76236;SDS011;65038;53.200;6.530;2023-11-21T07:07:21;28.33;;;11.13;;
76236;SDS011;65038;53.200;6.530;2023-11-21T07:09:47;27.40;;;11.13;;
76236;SDS011;65038;53.200;6.530;2023-11-21T07:12:14;27.70;;;11.73;;
76236;SDS011;65038;53.200;6.530;2023-11-21T07:14:40;30.20;;;12.30;;
76236;SDS011;65038;53.200;6.530;2023-11-21T07:17:08;32.90;;;12.55;;
76236;SDS011;65038;53.200;6.530;2023-11-21T07:19:34;32.50;;;12.18;;
76236;SDS011;65038;53.200;6.530;2023-11-21T07:22:00;36.97;;;13.48;;
76236;SDS011;65038;53.200;6.530;2023-11-21T07:24:26;35.03;;;13.07;;
76236;SDS011;65038;53.200;6.530;2023-11-21T07:26:52;39.47;;;14.90;;
76236;SDS011;65038;53.200;6.530;2023-11-21T07:29:21;39.35;;;15.20;;
76236;SDS011;65038;53.200;6.530;2023-11-21T07:31:47;42.28;;;15.63;;
76236;SDS011;65038;53.200;6.530;2023-11-21T07:34:13;40.25;;;15.52;;
76236;SDS011;65038;53.200;6.530;2023-11-21T07:36:39;44.70;;;16.58;;
76236;SDS011;65038;53.200;6.530;2023-11-21T07:39:05;46.15;;;16.70;;
76236;SDS011;65038;53.200;6.530;2023-11-21T07:41:31;42.78;;;16.27;;
76236;SDS011;65038;53.200;6.530;2023-11-21T07:43:57;44.90;;;17.52;;
76236;SDS011;65038;53.200;6.530;2023-11-21T07:46:23;43.35;;;16.00;;
76236;SDS011;65038;53.200;6.530;2023-11-21T07:48:51;40.47;;;15.95;;
76236;SDS011;65038;53.200;6.530;2023-11-21T07:51:17;42.70;;;16.15;;
76236;SDS011;65038;53.200;6.530;2023-11-21T07:53:43;47.10;;;16.35;;
76236;SDS011;65038;53.200;6.530;2023-11-21T07:56:09;41.33;;;16.23;;
76236;SDS011;65038;53.200;6.530;2023-11-21T07:58:36;39.70;;;16.83;;
76236;SDS011;65038;53.200;6.530;2023-11-21T08:01:02;38.83;;;16.08;;
76236;SDS011;65038;53.200;6.530;2023-11-21T08:03:29;39.88;;;17.02;;
76236;SDS011;65038;53.200;6.530;2023-11-21T08:05:55;40.47;;;17.05;;
76236;SDS011;65038;53.200;6.530;2023-11-21T08:08:21;41.60;;;16.25;;
76236;SDS011;65038;53.200;6.530;2023-11-21T08:10:49;43.90;;;17.67;;
76236;SDS011;65038;53.200;6.530;2023-11-21T08:13:24;36.67;;;15.55;;
76236;SDS011;65038;53.200;6.530;2023-11-21T08:15:53;33.72;;;15.07;;
76236;SDS011;65038;53.200;6.530;2023-11-21T08:18:19;32.70;;;15.40;;
76236;SDS011;65038;53.200;6.530;2023-11-21T08:20:46;36.65;;;15.93;;
76236;SDS011;65038;53.200;6.530;2023-11-21T08:23:15;38.13;;;16.10;;
76236;SDS011;65038;53.200;6.530;2023-11-21T08:25:42;35.33;;;16.60;;
76236;SDS011;65038;53.200;6.530;2023-11-21T08:28:08;42.03;;;17.35;;
76236;SDS011;65038;53.200;6.530;2023-11-21T08:30:35;35.22;;;16.15;;
76236;SDS011;65038;53.200;6.530;2023-11-21T08:33:01;35.35;;;16.48;;
76236;SDS011;65038;53.200;6.530;2023-11-21T08:35:28;36.20;;;16.30;;
76236;SDS011;65038;53.200;6.530;2023-11-21T08:37:54;34.17;;;15.57;;
76236;SDS011;65038;53.200;6.530;2023-11-21T08:40:20;37.53;;;16.33;;
76236;SDS011;65038;53.200;6.530;2023-11-21T08:42:47;37.33;;;16.13;;
76236;SDS011;65038;53.200;6.530;2023-11-21T08:45:14;35.90;;;15.93;;
76236;SDS011;65038;53.200;6.530;2023-11-21T08:47:41;36.65;;;16.50;;
76236;SDS011;65038;53.200;6.530;2023-11-21T08:50:09;31.73;;;15.73;;
76236;SDS011;65038;53.200;6.530;2023-11-21T08:52:37;29.33;;;14.88;;
76236;SDS011;65038;53.200;6.530;2023-11-21T08:55:03;29.05;;;14.23;;
76236;SDS011;65038;53.200;6.530;2023-11-21T08:57:36;23.50;;;13.00;;
76236;SDS011;65038;53.200;6.530;2023-11-21T09:00:03;24.83;;;13.93;;
76236;SDS011;65038;53.200;6.530;2023-11-21T09:02:32;25.48;;;13.88;;
76236;SDS011;65038;53.200;6.530;2023-11-21T09:05:02;24.23;;;13.90;;
76236;SDS011;65038;53.200;6.530;2023-11-21T09:07:29;21.83;;;12.60;;
76236;SDS011;65038;53.200;6.530;2023-11-21T09:09:55;21.27;;;11.68;;
76236;SDS011;65038;53.200;6.530;2023-11-21T09:12:21;21.67;;;12.73;;
76236;SDS011;65038;53.200;6.530;2023-11-21T09:14:49;19.40;;;11.23;;
76236;SDS011;65038;53.200;6.530;2023-11-21T09:17:16;19.05;;;11.48;;
76236;SDS011;65038;53.200;6.530;2023-11-21T09:19:42;17.88;;;10.80;;
76236;SDS011;65038;53.200;6.530;2023-11-21T09:22:15;19.45;;;11.27;;
76236;SDS011;65038;53.200;6.530;2023-11-21T09:24:41;18.42;;;11.45;;
76236;SDS011;65038;53.200;6.530;2023-11-21T09:27:07;18.45;;;11.15;;
76236;SDS011;65038;53.200;6.530;2023-11-21T09:29:34;20.70;;;12.02;;
76236;SDS011;65038;53.200;6.530;2023-11-21T09:32:00;16.88;;;11.07;;
76236;SDS011;65038;53.200;6.530;2023-11-21T09:34:26;18.25;;;11.10;;
76236;SDS011;65038;53.200;6.530;2023-11-21T09:36:52;20.13;;;11.63;;
76236;SDS011;65038;53.200;6.530;2023-11-21T09:39:19;20.33;;;11.18;;
76236;SDS011;65038;53.200;6.530;2023-11-21T09:41:51;19.08;;;11.55;;
76236;SDS011;65038;53.200;6.530;2023-11-21T09:44:29;18.40;;;10.38;;
76236;SDS011;65038;53.200;6.530;2023-11-21T09:46:59;18.65;;;10.68;;
76236;SDS011;65038;53.200;6.530;2023-11-21T09:49:25;18.35;;;10.95;;
76236;SDS011;65038;53.200;6.530;2023-11-21T09:51:53;18.45;;;10.85;;
76236;SDS011;65038;53.200;6.530;2023-11-21T09:54:23;17.70;;;10.43;;
76236;SDS011;65038;53.200;6.530;2023-11-21T09:56:49;19.60;;;10.65;;
76236;SDS011;65038;53.200;6.530;2023-11-21T09:59:15;16.42;;;9.88;;
76236;SDS011;65038;53.200;6.530;2023-11-21T10:01:42;17.30;;;9.85;;
76236;SDS011;65038;53.200;6.530;2023-11-21T10:04:08;16.30;;;9.45;;
76236;SDS011;65038;53.200;6.530;2023-11-21T10:06:40;13.88;;;8.52;;
76236;SDS011;65038;53.200;6.530;2023-11-21T10:09:10;14.05;;;8.65;;
76236;SDS011;65038;53.200;6.530;2023-11-21T10:11:40;14.18;;;8.65;;
76236;SDS011;65038;53.200;6.530;2023-11-21T10:14:07;13.85;;;7.97;;
76236;SDS011;65038;53.200;6.530;2023-11-21T10:16:35;12.93;;;7.50;;
76236;SDS011;65038;53.200;6.530;2023-11-21T10:19:02;13.50;;;7.75;;
76236;SDS011;65038;53.200;6.530;2023-11-21T10:21:31;12.75;;;7.50;;
76236;SDS011;65038;53.200;6.530;2023-11-21T10:23:58;14.63;;;7.65;;
76236;SDS011;65038;53.200;6.530;2023-11-21T10:26:24;12.27;;;7.38;;
76236;SDS011;65038;53.200;6.530;2023-11-21T10:31:23;12.73;;;7.50;;
76236;SDS011;65038;53.200;6.530;2023-11-21T10:33:49;12.90;;;7.68;;
76236;SDS011;65038;53.200;6.530;2023-11-21T10:36:26;13.00;;;7.18;;
76236;SDS011;65038;53.200;6.530;2023-11-21T10:38:53;12.30;;;7.15;;
76236;SDS011;65038;53.200;6.530;2023-11-21T10:41:19;13.38;;;7.47;;
76236;SDS011;65038;53.200;6.530;2023-11-21T10:43:45;10.98;;;6.28;;
76236;SDS011;65038;53.200;6.530;2023-11-21T10:46:12;10.32;;;6.15;;
76236;SDS011;65038;53.200;6.530;2023-11-21T10:48:39;11.80;;;6.55;;
76236;SDS011;65038;53.200;6.530;2023-11-21T10:51:07;11.93;;;6.53;;
76236;SDS011;65038;53.200;6.530;2023-11-21T10:53:35;11.25;;;6.85;;
76236;SDS011;65038;53.200;6.530;2023-11-21T10:56:05;12.15;;;6.32;;
76236;SDS011;65038;53.200;6.530;2023-11-21T10:58:32;11.02;;;6.15;;
76236;SDS011;65038;53.200;6.530;2023-11-21T11:00:58;10.55;;;6.30;;
76236;SDS011;65038;53.200;6.530;2023-11-21T11:03:25;10.50;;;6.03;;
76236;SDS011;65038;53.200;6.530;2023-11-21T11:05:51;9.88;;;6.00;;
76236;SDS011;65038;53.200;6.530;2023-11-21T11:08:20;11.90;;;6.22;;
76236;SDS011;65038;53.200;6.530;2023-11-21T11:10:51;9.75;;;6.22;;
76236;SDS011;65038;53.200;6.530;2023-11-21T11:13:17;12.30;;;6.47;;
76236;SDS011;65038;53.200;6.530;2023-11-21T11:15:46;12.15;;;6.93;;
76236;SDS011;65038;53.200;6.530;2023-11-21T11:18:12;10.38;;;6.47;;
76236;SDS011;65038;53.200;6.530;2023-11-21T11:20:39;12.88;;;6.80;;
76236;SDS011;65038;53.200;6.530;2023-11-21T11:26:09;9.70;;;5.47;;
76236;SDS011;65038;53.200;6.530;2023-11-21T11:31:51;10.20;;;5.55;;
76236;SDS011;65038;53.200;6.530;2023-11-21T11:34:35;9.65;;;5.35;;
76236;SDS011;65038;53.200;6.530;2023-11-21T11:37:03;9.68;;;5.90;;
76236;SDS011;65038;53.200;6.530;2023-11-21T11:39:40;10.02;;;5.80;;
76236;SDS011;65038;53.200;6.530;2023-11-21T11:42:16;10.23;;;5.45;;
76236;SDS011;65038;53.200;6.530;2023-11-21T11:50:10;10.80;;;6.45;;
76236;SDS011;65038;53.200;6.530;2023-11-21T11:52:45;10.00;;;5.85;;
76236;SDS011;65038;53.200;6.530;2023-11-21T11:55:15;10.40;;;6.10;;
76236;SDS011;65038;53.200;6.530;2023-11-21T11:57:45;9.65;;;5.85;;
76236;SDS011;65038;53.200;6.530;2023-11-21T12:00:16;9.77;;;5.57;;
76236;SDS011;65038;53.200;6.530;2023-11-21T12:02:50;9.48;;;5.38;;
76236;SDS011;65038;53.200;6.530;2023-11-21T12:05:20;9.98;;;5.68;;
76236;SDS011;65038;53.200;6.530;2023-11-21T12:07:47;10.75;;;5.82;;
76236;SDS011;65038;53.200;6.530;2023-11-21T12:10:17;11.27;;;5.93;;
76236;SDS011;65038;53.200;6.530;2023-11-21T12:12:47;9.50;;;5.40;;
76236;SDS011;65038;53.200;6.530;2023-11-21T12:15:14;10.38;;;5.07;;
76236;SDS011;65038;53.200;6.530;2023-11-21T12:17:41;7.35;;;4.35;;
76236;SDS011;65038;53.200;6.530;2023-11-21T12:20:08;8.38;;;4.88;;
76236;SDS011;65038;53.200;6.530;2023-11-21T12:22:49;11.70;;;5.28;;
76236;SDS011;65038;53.200;6.530;2023-11-21T12:25:19;9.35;;;5.10;;
76236;SDS011;65038;53.200;6.530;2023-11-21T12:27:46;9.65;;;5.47;;
76236;SDS011;65038;53.200;6.530;2023-11-21T12:30:14;9.85;;;5.65;;
76236;SDS011;65038;53.200;6.530;2023-11-21T12:32:41;10.68;;;5.60;;
76236;SDS011;65038;53.200;6.530;2023-11-21T12:35:08;8.93;;;5.45;;
76236;SDS011;65038;53.200;6.530;2023-11-21T12:37:36;9.23;;;5.22;;
76236;SDS011;65038;53.200;6.530;2023-11-21T12:40:03;9.73;;;5.63;;
76236;SDS011;65038;53.200;6.530;2023-11-21T12:42:30;9.45;;;5.50;;
76236;SDS011;65038;53.200;6.530;2023-11-21T12:50:20;10.10;;;5.80;;
76236;SDS011;65038;53.200;6.530;2023-11-21T12:52:48;9.55;;;5.47;;
76236;SDS011;65038;53.200;6.530;2023-11-21T12:55:15;9.75;;;5.20;;
76236;SDS011;65038;53.200;6.530;2023-11-21T12:57:42;10.88;;;5.72;;
76236;SDS011;65038;53.200;6.530;2023-11-21T13:00:08;11.23;;;5.95;;
76236;SDS011;65038;53.200;6.530;2023-11-21T13:02:38;10.57;;;5.63;;
76236;SDS011;65038;53.200;6.530;2023-11-21T13:05:07;10.93;;;5.97;;
76236;SDS011;65038;53.200;6.530;2023-11-21T13:07:43;10.93;;;5.72;;
76236;SDS011;65038;53.200;6.530;2023-11-21T13:10:12;10.55;;;5.75;;
76236;SDS011;65038;53.200;6.530;2023-11-21T13:12:42;11.15;;;6.00;;
76236;SDS011;65038;53.200;6.530;2023-11-21T13:15:09;9.05;;;4.80;;
76236;SDS011;65038;53.200;6.530;2023-11-21T13:17:35;9.05;;;5.40;;
76236;SDS011;65038;53.200;6.530;2023-11-21T13:20:01;10.05;;;5.50;;
76236;SDS011;65038;53.200;6.530;2023-11-21T13:22:31;11.20;;;5.85;;
76236;SDS011;65038;53.200;6.530;2023-11-21T13:24:58;11.50;;;5.57;;
76236;SDS011;65038;53.200;6.530;2023-11-21T13:27:24;11.15;;;5.57;;
76236;SDS011;65038;53.200;6.530;2023-11-21T13:29:51;9.82;;;5.22;;
76236;SDS011;65038;53.200;6.530;2023-11-21T13:32:17;9.90;;;5.55;;
76236;SDS011;65038;53.200;6.530;2023-11-21T13:34:45;8.20;;;5.03;;
76236;SDS011;65038;53.200;6.530;2023-11-21T13:37:12;9.02;;;5.10;;
76236;SDS011;65038;53.200;6.530;2023-11-21T13:39:38;8.15;;;4.57;;
76236;SDS011;65038;53.200;6.530;2023-11-21T13:42:09;8.93;;;4.45;;
76236;SDS011;65038;53.200;6.530;2023-11-21T13:44:36;7.07;;;4.32;;
76236;SDS011;65038;53.200;6.530;2023-11-21T13:47:06;8.38;;;4.82;;
76236;SDS011;65038;53.200;6.530;2023-11-21T13:49:32;9.93;;;4.95;;
76236;SDS011;65038;53.200;6.530;2023-11-21T13:52:05;12.30;;;4.80;;
76236;SDS011;65038;53.200;6.530;2023-11-21T13:54:32;8.73;;;5.32;;
76236;SDS011;65038;53.200;6.530;2023-11-21T13:56:58;11.45;;;4.95;;
76236;SDS011;65038;53.200;6.530;2023-11-21T13:59:25;8.75;;;4.80;;
76236;SDS011;65038;53.200;6.530;2023-11-21T14:01:53;12.30;;;4.93;;
76236;SDS011;65038;53.200;6.530;2023-11-21T14:04:20;9.85;;;4.80;;
76236;SDS011;65038;53.200;6.530;2023-11-21T14:06:56;9.60;;;4.75;;
76236;SDS011;65038;53.200;6.530;2023-11-21T14:09:24;8.93;;;4.40;;
76236;SDS011;65038;53.200;6.530;2023-11-21T14:11:57;7.47;;;4.35;;
76236;SDS011;65038;53.200;6.530;2023-11-21T14:14:24;9.77;;;4.53;;
76236;SDS011;65038;53.200;6.530;2023-11-21T14:16:51;8.27;;;4.60;;
76236;SDS011;65038;53.200;6.530;2023-11-21T14:19:17;11.10;;;4.82;;
76236;SDS011;65038;53.200;6.530;2023-11-21T14:21:44;7.57;;;4.57;;
76236;SDS011;65038;53.200;6.530;2023-11-21T14:24:13;9.05;;;4.40;;
76236;SDS011;65038;53.200;6.530;2023-11-21T14:26:42;8.55;;;4.07;;
76236;SDS011;65038;53.200;6.530;2023-11-21T14:29:08;9.27;;;4.30;;
76236;SDS011;65038;53.200;6.530;2023-11-21T14:31:37;8.85;;;4.40;;
76236;SDS011;65038;53.200;6.530;2023-11-21T14:34:05;7.55;;;4.00;;
76236;SDS011;65038;53.200;6.530;2023-11-21T14:36:32;7.97;;;4.13;;
76236;SDS011;65038;53.200;6.530;2023-11-21T14:38:58;8.65;;;4.00;;
76236;SDS011;65038;53.200;6.530;2023-11-21T14:41:24;10.05;;;3.90;;
76236;SDS011;65038;53.200;6.530;2023-11-21T14:43:54;6.40;;;3.58;;
76236;SDS011;65038;53.200;6.530;2023-11-21T14:46:22;7.80;;;3.75;;
76236;SDS011;65038;53.200;6.530;2023-11-21T14:48:48;8.45;;;3.80;;
76236;SDS011;65038;53.200;6.530;2023-11-21T14:51:26;8.55;;;3.70;;